Time;durP1;ratioP1;P1;durP2;ratioP2;P2;SDS_P1;SDS_P2;PMS_P1;PMS_P2;Temp;Humidity;BMP_temperature;BMP_pressure;BME280_temperature;BME280_humidity;BME280_pressure;Samples;Min_cycle;Max_cycle;Signal;HPM_P1;HPM_P2
2022/03/04 00:01:00;;;;;;;46.85;23.02;;;;;;;;;;4932127;28;20047;-79
2022/03/04 00:03:27;;;;;;;42.13;21.90;;;;;;;;;;4953745;28;20436;-79
2022/03/04 00:05:53;;;;;;;40.47;21.55;;;;;;;;;;4954133;28;20065;-79
2022/03/04 00:08:19;;;;;;;43.88;21.95;;;;;;;;;;4970493;28;20040;-79
2022/03/04 00:10:47;;;;;;;46.08;25.13;;;;;;;;;;4950967;28;20043;-79
2022/03/04 00:13:12;;;;;;;41.05;22.02;;;;;;;;;;4941046;28;20154;-79
2022/03/04 00:15:38;;;;;;;41.08;20.88;;;;;;;;;;4953118;28;20070;-79
2022/03/04 00:18:07;;;;;;;48.00;23.73;;;;;;;;;;4964617;28;20148;-79
2022/03/04 00:20:33;;;;;;;43.75;23.52;;;;;;;;;;4945059;28;20047;-79
2022/03/04 00:22:58;;;;;;;43.72;22.40;;;;;;;;;;4944064;28;20089;-79
2022/03/04 00:25:24;;;;;;;44.75;22.92;;;;;;;;;;4935670;28;20094;-79
2022/03/04 00:27:50;;;;;;;51.45;25.42;;;;;;;;;;4927602;29;20043;-79
2022/03/04 00:30:16;;;;;;;43.78;22.17;;;;;;;;;;4946163;28;20361;-79
2022/03/04 00:32:41;;;;;;;49.50;23.98;;;;;;;;;;4947256;29;20090;-79
2022/03/04 00:35:08;;;;;;;36.28;20.05;;;;;;;;;;4956173;28;20078;-79
2022/03/04 00:37:34;;;;;;;37.05;19.05;;;;;;;;;;4963524;28;20047;-79
2022/03/04 00:39:59;;;;;;;35.90;18.95;;;;;;;;;;4963087;28;20606;-79
2022/03/04 00:42:27;;;;;;;34.08;18.90;;;;;;;;;;4938650;28;20047;-79
2022/03/04 00:44:56;;;;;;;35.72;19.05;;;;;;;;;;4949734;28;20039;-79
2022/03/04 00:47:22;;;;;;;35.40;20.40;;;;;;;;;;4966344;28;20058;-79
2022/03/04 00:49:48;;;;;;;42.20;21.80;;;;;;;;;;4960020;28;20040;-79
2022/03/04 00:52:15;;;;;;;48.42;23.38;;;;;;;;;;4946199;28;20619;-79
2022/03/04 00:54:42;;;;;;;47.38;23.52;;;;;;;;;;4980419;28;20043;-79
2022/03/04 00:57:08;;;;;;;45.97;22.63;;;;;;;;;;4943729;28;20058;-79
2022/03/04 00:59:34;;;;;;;39.17;21.95;;;;;;;;;;4944109;28;20043;-79
2022/03/04 01:02:01;;;;;;;45.00;22.70;;;;;;;;;;4937278;28;20485;-79
2022/03/04 01:04:27;;;;;;;46.53;22.92;;;;;;;;;;4938449;28;20380;-79
2022/03/04 01:06:53;;;;;;;60.67;24.20;;;;;;;;;;4946295;28;20048;-79
2022/03/04 01:09:20;;;;;;;56.13;24.33;;;;;;;;;;4949630;28;20039;-79
2022/03/04 01:11:50;;;;;;;57.40;25.00;;;;;;;;;;4959500;28;20042;-79
2022/03/04 01:14:16;;;;;;;55.38;25.23;;;;;;;;;;4946032;28;20513;-79
2022/03/04 01:16:42;;;;;;;59.90;24.70;;;;;;;;;;4965381;28;20043;-79
2022/03/04 01:19:08;;;;;;;64.93;28.20;;;;;;;;;;4931790;28;20047;-79
2022/03/04 01:21:34;;;;;;;64.28;25.88;;;;;;;;;;4927504;28;20040;-79
2022/03/04 01:24:00;;;;;;;65.43;26.65;;;;;;;;;;4950462;28;20501;-79
2022/03/04 01:26:26;;;;;;;64.57;26.83;;;;;;;;;;4953194;28;20043;-79
2022/03/04 01:28:52;;;;;;;69.65;28.25;;;;;;;;;;4961677;28;20094;-79
2022/03/04 01:31:18;;;;;;;69.45;28.55;;;;;;;;;;4952821;28;20047;-79
2022/03/04 01:33:44;;;;;;;69.97;27.67;;;;;;;;;;4965805;28;20049;-79
2022/03/04 01:36:11;;;;;;;64.70;25.98;;;;;;;;;;4959125;28;20047;-79
2022/03/04 01:38:37;;;;;;;73.03;28.63;;;;;;;;;;4959988;28;20049;-79
2022/03/04 01:41:03;;;;;;;67.18;28.45;;;;;;;;;;4943739;28;20111;-79
2022/03/04 01:43:30;;;;;;;67.43;28.25;;;;;;;;;;4946113;28;20045;-79
2022/03/04 01:45:56;;;;;;;65.13;27.17;;;;;;;;;;4950758;28;20117;-79
2022/03/04 01:48:22;;;;;;;67.88;28.23;;;;;;;;;;4965421;28;20341;-79
2022/03/04 01:50:50;;;;;;;64.88;28.08;;;;;;;;;;4962559;28;20054;-77
2022/03/04 01:53:16;;;;;;;66.18;28.55;;;;;;;;;;4939110;28;20410;-76
2022/03/04 01:55:42;;;;;;;67.20;28.30;;;;;;;;;;4942567;28;20049;-77
2022/03/04 01:58:08;;;;;;;67.15;28.67;;;;;;;;;;4957381;28;20130;-77
2022/03/04 02:00:34;;;;;;;65.13;27.58;;;;;;;;;;4936464;28;20094;-77
2022/03/04 02:03:01;;;;;;;63.78;25.80;;;;;;;;;;4959583;28;20072;-77
2022/03/04 02:05:29;;;;;;;59.92;26.08;;;;;;;;;;4946672;28;20039;-77
2022/03/04 02:07:56;;;;;;;61.78;26.88;;;;;;;;;;4962266;28;20445;-76
2022/03/04 02:10:22;;;;;;;52.53;25.50;;;;;;;;;;4941635;28;20045;-76
2022/03/04 02:12:48;;;;;;;51.70;25.13;;;;;;;;;;4957279;28;20055;-77
2022/03/04 02:15:13;;;;;;;42.72;20.83;;;;;;;;;;4961302;28;20074;-76
2022/03/04 02:17:39;;;;;;;43.17;21.30;;;;;;;;;;4951104;28;20500;-76
2022/03/04 02:20:07;;;;;;;54.38;23.15;;;;;;;;;;4962446;28;20658;-76
2022/03/04 02:22:33;;;;;;;39.42;19.52;;;;;;;;;;4959386;28;20028;-77
2022/03/04 02:24:59;;;;;;;43.67;21.27;;;;;;;;;;4924932;28;20456;-77
2022/03/04 02:27:25;;;;;;;59.67;23.65;;;;;;;;;;4964655;28;20068;-76
2022/03/04 02:29:51;;;;;;;51.83;22.98;;;;;;;;;;4961112;28;20050;-76
2022/03/04 02:32:21;;;;;;;51.03;24.08;;;;;;;;;;4982831;28;20126;-76
2022/03/04 02:34:46;;;;;;;45.22;22.98;;;;;;;;;;4965545;28;20412;-77
2022/03/04 02:37:13;;;;;;;49.83;24.95;;;;;;;;;;4965694;28;20066;-77
2022/03/04 02:39:39;;;;;;;45.83;24.00;;;;;;;;;;4964928;28;20042;-76
2022/03/04 02:42:05;;;;;;;48.78;22.25;;;;;;;;;;4964102;28;20043;-76
2022/03/04 02:44:31;;;;;;;46.70;23.35;;;;;;;;;;4960107;28;20050;-76
2022/03/04 02:46:58;;;;;;;45.30;23.55;;;;;;;;;;4955795;28;20126;-76
2022/03/04 02:49:25;;;;;;;46.10;23.02;;;;;;;;;;4966165;28;20043;-77
2022/03/04 02:51:51;;;;;;;49.90;24.90;;;;;;;;;;4960489;28;20039;-76
2022/03/04 02:54:17;;;;;;;46.78;24.17;;;;;;;;;;4964317;28;20148;-76
2022/03/04 02:56:44;;;;;;;51.13;25.58;;;;;;;;;;4962501;28;20137;-77
2022/03/04 02:59:10;;;;;;;48.05;25.98;;;;;;;;;;4963548;28;20043;-77
2022/03/04 03:01:36;;;;;;;48.17;25.65;;;;;;;;;;4942806;28;20067;-76
2022/03/04 03:04:01;;;;;;;52.33;24.58;;;;;;;;;;4949634;28;20105;-77
2022/03/04 03:06:27;;;;;;;44.00;22.20;;;;;;;;;;4956281;28;20396;-77
2022/03/04 03:08:54;;;;;;;47.78;25.52;;;;;;;;;;4964863;28;20418;-77
2022/03/04 03:11:20;;;;;;;42.92;23.67;;;;;;;;;;4965539;28;20035;-77
2022/03/04 03:13:46;;;;;;;47.33;24.83;;;;;;;;;;4962714;28;20053;-77
2022/03/04 03:16:11;;;;;;;49.20;25.50;;;;;;;;;;4978450;28;20062;-77
2022/03/04 03:18:37;;;;;;;48.13;24.08;;;;;;;;;;4961475;28;20062;-77
2022/03/04 03:21:03;;;;;;;43.63;24.00;;;;;;;;;;4958567;28;20484;-77
2022/03/04 03:23:29;;;;;;;42.08;23.88;;;;;;;;;;4948483;28;20042;-77
2022/03/04 03:25:55;;;;;;;45.90;23.83;;;;;;;;;;4952932;28;20054;-77
2022/03/04 03:28:20;;;;;;;42.08;23.92;;;;;;;;;;4980307;28;20039;-77
2022/03/04 03:30:46;;;;;;;39.67;22.30;;;;;;;;;;4967068;28;20548;-77
2022/03/04 03:33:12;;;;;;;40.55;22.98;;;;;;;;;;4960814;28;20042;-77
2022/03/04 03:35:38;;;;;;;40.05;22.45;;;;;;;;;;4976666;28;20567;-77
2022/03/04 03:38:05;;;;;;;37.40;21.60;;;;;;;;;;4960242;28;20074;-77
2022/03/04 03:40:32;;;;;;;42.55;23.30;;;;;;;;;;4945050;28;20038;-77
2022/03/04 03:42:58;;;;;;;40.45;23.13;;;;;;;;;;4946327;28;20583;-77
2022/03/04 03:45:24;;;;;;;45.47;23.70;;;;;;;;;;4947032;28;20070;-77
2022/03/04 03:47:53;;;;;;;45.00;22.98;;;;;;;;;;4964542;28;20035;-77
2022/03/04 03:50:19;;;;;;;46.45;23.52;;;;;;;;;;4960644;28;20400;-77
2022/03/04 03:52:45;;;;;;;40.90;22.73;;;;;;;;;;4971922;28;20070;-77
2022/03/04 03:55:10;;;;;;;40.15;23.45;;;;;;;;;;4959887;28;20066;-76
2022/03/04 03:57:37;;;;;;;46.60;24.65;;;;;;;;;;4941277;28;20043;-76
2022/03/04 04:00:04;;;;;;;41.92;23.73;;;;;;;;;;4974129;28;20400;-77
2022/03/04 04:02:30;;;;;;;46.08;24.52;;;;;;;;;;4954428;28;20053;-77
2022/03/04 04:04:56;;;;;;;44.08;24.40;;;;;;;;;;4953571;28;20055;-77
2022/03/04 04:07:23;;;;;;;40.70;23.13;;;;;;;;;;4942600;28;20049;-77
2022/03/04 04:09:48;;;;;;;45.92;24.65;;;;;;;;;;4968019;28;20027;-77
2022/03/04 04:12:15;;;;;;;43.47;24.65;;;;;;;;;;4947166;28;20078;-77
2022/03/04 04:14:42;;;;;;;46.08;24.25;;;;;;;;;;4955674;28;20070;-76
2022/03/04 04:17:09;;;;;;;48.08;25.35;;;;;;;;;;4974661;28;20046;-76
2022/03/04 04:19:37;;;;;;;48.10;23.65;;;;;;;;;;4948609;28;20364;-76
2022/03/04 04:22:03;;;;;;;52.40;23.67;;;;;;;;;;4944388;28;20048;-77
2022/03/04 04:24:29;;;;;;;47.22;23.95;;;;;;;;;;4961457;28;20401;-77
2022/03/04 04:26:56;;;;;;;48.17;23.67;;;;;;;;;;4964891;28;20043;-76
2022/03/04 04:29:22;;;;;;;47.40;23.25;;;;;;;;;;4956306;28;20041;-76
2022/03/04 04:31:48;;;;;;;42.58;22.58;;;;;;;;;;4965760;28;20047;-76
2022/03/04 04:34:13;;;;;;;49.70;24.90;;;;;;;;;;4960642;28;20125;-77
2022/03/04 04:36:39;;;;;;;53.08;23.45;;;;;;;;;;4951555;28;20038;-77
2022/03/04 04:39:06;;;;;;;54.28;24.95;;;;;;;;;;4961556;28;20078;-77
2022/03/04 04:41:34;;;;;;;54.08;24.42;;;;;;;;;;4952512;28;20035;-76
2022/03/04 04:44:00;;;;;;;49.38;25.50;;;;;;;;;;4960367;28;20491;-77
2022/03/04 04:46:26;;;;;;;53.97;26.05;;;;;;;;;;4946895;28;20403;-76
2022/03/04 04:48:52;;;;;;;49.30;24.55;;;;;;;;;;4961446;28;20066;-76
2022/03/04 04:51:20;;;;;;;53.05;25.40;;;;;;;;;;4972562;28;20537;-77
2022/03/04 04:53:45;;;;;;;48.90;24.38;;;;;;;;;;4964085;28;20049;-76
2022/03/04 04:56:12;;;;;;;45.72;23.02;;;;;;;;;;4962008;28;20118;-77
2022/03/04 04:58:38;;;;;;;45.95;22.95;;;;;;;;;;4947865;28;20039;-76
2022/03/04 05:01:04;;;;;;;55.70;25.40;;;;;;;;;;4956555;28;20484;-77
2022/03/04 05:03:32;;;;;;;53.10;23.42;;;;;;;;;;4960727;28;20078;-77
2022/03/04 05:05:57;;;;;;;52.60;24.13;;;;;;;;;;4962153;28;20042;-77
2022/03/04 05:08:27;;;;;;;52.05;24.30;;;;;;;;;;4964363;28;20477;-77
2022/03/04 05:10:53;;;;;;;48.53;22.48;;;;;;;;;;4962404;28;20305;-77
2022/03/04 05:13:19;;;;;;;42.03;22.65;;;;;;;;;;4950405;28;20817;-77
2022/03/04 05:15:45;;;;;;;52.63;23.15;;;;;;;;;;4953096;28;20202;-77
2022/03/04 05:18:12;;;;;;;49.05;23.75;;;;;;;;;;4957903;28;20099;-77
2022/03/04 05:20:38;;;;;;;51.53;24.48;;;;;;;;;;4956205;28;20042;-78
2022/03/04 05:23:03;;;;;;;51.03;23.70;;;;;;;;;;4924798;28;20063;-77
2022/03/04 05:25:30;;;;;;;54.65;23.80;;;;;;;;;;4945516;28;20042;-79
2022/03/04 05:27:56;;;;;;;54.58;23.92;;;;;;;;;;4936751;28;20038;-79
2022/03/04 05:30:22;;;;;;;50.42;23.00;;;;;;;;;;4947761;28;20047;-79
2022/03/04 05:32:48;;;;;;;52.10;22.17;;;;;;;;;;4930621;28;20121;-78
2022/03/04 05:35:14;;;;;;;50.67;24.38;;;;;;;;;;4958151;28;20530;-79
2022/03/04 05:37:40;;;;;;;49.72;22.95;;;;;;;;;;4939251;28;20485;-79
2022/03/04 05:40:06;;;;;;;54.72;23.38;;;;;;;;;;4952147;28;20058;-78
2022/03/04 05:42:33;;;;;;;58.35;23.80;;;;;;;;;;4951716;28;20158;-79
2022/03/04 05:44:59;;;;;;;56.85;24.65;;;;;;;;;;4933650;28;20122;-78
2022/03/04 05:47:25;;;;;;;53.65;23.92;;;;;;;;;;4927762;28;20146;-79
2022/03/04 05:49:51;;;;;;;59.58;24.98;;;;;;;;;;4930591;28;20512;-79
2022/03/04 05:52:16;;;;;;;59.08;25.02;;;;;;;;;;4942706;28;20369;-79
2022/03/04 05:54:42;;;;;;;59.55;23.25;;;;;;;;;;4943234;28;20125;-79
2022/03/04 05:57:08;;;;;;;60.75;24.27;;;;;;;;;;4928020;28;20126;-79
2022/03/04 05:59:33;;;;;;;59.72;24.48;;;;;;;;;;4931427;28;20149;-79
2022/03/04 06:01:59;;;;;;;58.45;23.30;;;;;;;;;;4938636;28;20048;-79
2022/03/04 06:04:25;;;;;;;64.93;25.30;;;;;;;;;;4959020;28;20145;-79
2022/03/04 06:06:51;;;;;;;63.08;26.70;;;;;;;;;;4953406;28;20122;-79
2022/03/04 06:09:16;;;;;;;62.80;23.60;;;;;;;;;;4935380;28;20134;-79
2022/03/04 06:11:45;;;;;;;62.15;25.75;;;;;;;;;;4950911;28;20057;-79
2022/03/04 06:14:10;;;;;;;61.60;24.80;;;;;;;;;;4944667;28;20126;-79
2022/03/04 06:16:37;;;;;;;69.75;25.13;;;;;;;;;;4942271;28;20500;-79
2022/03/04 06:19:02;;;;;;;68.30;25.30;;;;;;;;;;4961301;28;20039;-79
2022/03/04 06:21:28;;;;;;;71.93;25.88;;;;;;;;;;4950908;28;20069;-79
2022/03/04 06:23:54;;;;;;;75.20;27.90;;;;;;;;;;4961334;28;20071;-79
2022/03/04 06:26:20;;;;;;;70.28;25.63;;;;;;;;;;4968059;28;20047;-79
2022/03/04 06:28:46;;;;;;;60.45;25.13;;;;;;;;;;4945075;28;20047;-79
2022/03/04 06:31:13;;;;;;;61.58;22.55;;;;;;;;;;4946356;28;20114;-79
2022/03/04 06:33:40;;;;;;;64.50;23.92;;;;;;;;;;4947016;28;20150;-78
2022/03/04 06:36:10;;;;;;;61.13;23.00;;;;;;;;;;4952991;28;20473;-78
2022/03/04 06:38:38;;;;;;;62.85;23.30;;;;;;;;;;4966474;28;20090;-78
2022/03/04 06:41:05;;;;;;;59.83;23.05;;;;;;;;;;4933354;28;20405;-78
2022/03/04 06:43:30;;;;;;;56.50;22.70;;;;;;;;;;4955509;28;20039;-77
2022/03/04 06:45:56;;;;;;;55.78;22.45;;;;;;;;;;4924022;28;20044;-77
2022/03/04 06:48:22;;;;;;;54.33;20.67;;;;;;;;;;4958139;28;20055;-78
2022/03/04 06:50:49;;;;;;;56.05;19.42;;;;;;;;;;4952500;28;20054;-78
2022/03/04 06:53:15;;;;;;;46.95;21.00;;;;;;;;;;4972115;28;20042;-78
2022/03/04 06:55:41;;;;;;;44.72;20.63;;;;;;;;;;4954609;28;20130;-78
2022/03/04 06:58:07;;;;;;;46.28;20.52;;;;;;;;;;4947823;28;20040;-79
2022/03/04 07:00:32;;;;;;;51.08;19.67;;;;;;;;;;4964496;28;20129;-78
2022/03/04 07:02:58;;;;;;;50.85;21.15;;;;;;;;;;4960557;28;20424;-78
2022/03/04 07:05:24;;;;;;;46.88;18.20;;;;;;;;;;4948434;28;20121;-78
2022/03/04 07:07:51;;;;;;;49.95;19.45;;;;;;;;;;4949089;28;20150;-79
2022/03/04 07:10:17;;;;;;;42.72;18.58;;;;;;;;;;4948040;28;20396;-78
2022/03/04 07:12:43;;;;;;;49.08;18.98;;;;;;;;;;4964622;28;20042;-78
2022/03/04 07:15:10;;;;;;;38.83;16.80;;;;;;;;;;4959348;28;20047;-78
2022/03/04 07:17:36;;;;;;;36.83;16.33;;;;;;;;;;4965001;28;20042;-78
2022/03/04 07:20:04;;;;;;;38.88;15.43;;;;;;;;;;4958619;28;20110;-79
2022/03/04 07:22:30;;;;;;;33.88;13.88;;;;;;;;;;4963122;28;20134;-78
2022/03/04 07:24:56;;;;;;;33.95;14.57;;;;;;;;;;4965376;28;20154;-79
2022/03/04 07:27:22;;;;;;;38.85;16.05;;;;;;;;;;4961349;28;20245;-78
2022/03/04 07:29:47;;;;;;;34.30;14.68;;;;;;;;;;4960061;28;20152;-78
2022/03/04 07:32:13;;;;;;;35.00;14.73;;;;;;;;;;4956012;28;20501;-78
2022/03/04 07:34:39;;;;;;;37.17;16.55;;;;;;;;;;4954341;28;20066;-78
2022/03/04 07:37:07;;;;;;;33.60;14.05;;;;;;;;;;4961173;28;20575;-78
2022/03/04 07:39:32;;;;;;;25.85;11.90;;;;;;;;;;4963894;28;20065;-77
2022/03/04 07:41:58;;;;;;;25.05;11.88;;;;;;;;;;4962474;28;20066;-78
2022/03/04 07:44:24;;;;;;;24.48;12.27;;;;;;;;;;4938007;28;20043;-77
2022/03/04 07:46:50;;;;;;;26.55;11.45;;;;;;;;;;4935896;28;20078;-78
2022/03/04 07:49:16;;;;;;;26.55;10.73;;;;;;;;;;4956045;28;20074;-78
2022/03/04 07:51:43;;;;;;;24.60;12.32;;;;;;;;;;4925989;28;20130;-78
2022/03/04 07:54:09;;;;;;;23.05;11.05;;;;;;;;;;4948113;28;20057;-78
2022/03/04 07:56:35;;;;;;;25.83;10.98;;;;;;;;;;4962932;28;20078;-77
2022/03/04 07:59:01;;;;;;;26.05;9.95;;;;;;;;;;4963126;28;20083;-78
2022/03/04 08:01:26;;;;;;;24.88;9.13;;;;;;;;;;4965100;28;20034;-78
2022/03/04 08:03:52;;;;;;;21.95;9.23;;;;;;;;;;4952682;28;20039;-78
2022/03/04 08:06:18;;;;;;;20.30;9.20;;;;;;;;;;4958444;28;20346;-77
2022/03/04 08:08:44;;;;;;;19.70;10.52;;;;;;;;;;4926074;28;20039;-78
2022/03/04 08:11:09;;;;;;;23.42;9.48;;;;;;;;;;4945929;28;20054;-78
2022/03/04 08:13:36;;;;;;;19.35;8.45;;;;;;;;;;4944576;28;20130;-78
2022/03/04 08:16:03;;;;;;;13.30;7.47;;;;;;;;;;4943740;28;20058;-78
2022/03/04 08:18:28;;;;;;;11.23;6.53;;;;;;;;;;4942173;28;20134;-78
2022/03/04 08:20:54;;;;;;;14.75;8.07;;;;;;;;;;4961903;28;20447;-78
2022/03/04 08:23:20;;;;;;;14.88;6.63;;;;;;;;;;4947975;28;20063;-77
2022/03/04 08:25:46;;;;;;;12.00;6.43;;;;;;;;;;4954303;28;20066;-77
2022/03/04 08:28:12;;;;;;;15.13;5.82;;;;;;;;;;4974022;28;20055;-77
2022/03/04 08:30:37;;;;;;;14.38;5.85;;;;;;;;;;4961606;28;20050;-77
2022/03/04 08:33:03;;;;;;;12.60;5.32;;;;;;;;;;4960776;28;20078;-77
2022/03/04 08:35:29;;;;;;;10.38;4.80;;;;;;;;;;4950502;28;20121;-77
2022/03/04 08:37:55;;;;;;;6.13;3.85;;;;;;;;;;4944114;28;20123;-77
2022/03/04 08:40:21;;;;;;;7.45;4.40;;;;;;;;;;4961605;28;20493;-75
2022/03/04 08:42:47;;;;;;;9.68;4.07;;;;;;;;;;4953216;28;20393;-75
2022/03/04 08:45:16;;;;;;;10.07;4.03;;;;;;;;;;4945668;28;20043;-78
2022/03/04 08:47:43;;;;;;;9.43;3.63;;;;;;;;;;4963735;28;20116;-78
2022/03/04 08:50:10;;;;;;;6.30;3.75;;;;;;;;;;4961208;28;20479;-78
2022/03/04 08:52:36;;;;;;;5.93;3.10;;;;;;;;;;4957604;28;20053;-78
2022/03/04 08:55:01;;;;;;;6.65;3.00;;;;;;;;;;4955640;28;20401;-78
2022/03/04 08:57:28;;;;;;;8.35;3.15;;;;;;;;;;4950076;28;20512;-78
2022/03/04 08:59:53;;;;;;;4.55;2.45;;;;;;;;;;4990197;28;20050;-79
2022/03/04 09:02:19;;;;;;;10.45;3.05;;;;;;;;;;4947829;28;20090;-79
2022/03/04 09:04:45;;;;;;;5.68;3.03;;;;;;;;;;4964067;28;20077;-80
2022/03/04 09:07:10;;;;;;;9.30;2.83;;;;;;;;;;4961172;28;20223;-78
2022/03/04 09:09:38;;;;;;;7.05;3.00;;;;;;;;;;4965569;28;20054;-78
2022/03/04 09:12:04;;;;;;;8.43;2.92;;;;;;;;;;4950475;28;20065;-78
2022/03/04 09:14:30;;;;;;;6.80;2.53;;;;;;;;;;4962551;28;20046;-78
2022/03/04 09:16:56;;;;;;;5.78;2.53;;;;;;;;;;4961982;28;20031;-78
2022/03/04 09:19:22;;;;;;;4.57;1.98;;;;;;;;;;4962518;28;20035;-78
2022/03/04 09:21:47;;;;;;;3.70;2.05;;;;;;;;;;4958749;28;20062;-78
2022/03/04 09:24:14;;;;;;;3.88;1.80;;;;;;;;;;4962396;28;20062;-78
2022/03/04 09:26:42;;;;;;;5.30;1.92;;;;;;;;;;4960305;28;20050;-78
2022/03/04 09:29:08;;;;;;;6.05;2.08;;;;;;;;;;4976490;28;20049;-78
2022/03/04 09:31:34;;;;;;;1.90;1.15;;;;;;;;;;4992652;28;20042;-78
2022/03/04 09:34:00;;;;;;;3.95;1.65;;;;;;;;;;4953340;28;20346;-78
2022/03/04 09:36:26;;;;;;;4.88;1.13;;;;;;;;;;4963978;28;20532;-78
2022/03/04 09:38:52;;;;;;;3.72;1.45;;;;;;;;;;4934251;28;20059;-78
2022/03/04 09:41:19;;;;;;;4.03;1.20;;;;;;;;;;4962201;28;20066;-78
2022/03/04 09:43:46;;;;;;;3.22;1.55;;;;;;;;;;4947444;28;20062;-78
2022/03/04 09:46:13;;;;;;;4.05;1.35;;;;;;;;;;4963129;28;20492;-78
2022/03/04 09:48:43;;;;;;;3.75;1.27;;;;;;;;;;4938036;28;20563;-78
2022/03/04 09:51:09;;;;;;;3.78;1.20;;;;;;;;;;4960157;28;20109;-78
2022/03/04 09:53:35;;;;;;;4.38;1.50;;;;;;;;;;4928155;28;20134;-78
2022/03/04 09:56:00;;;;;;;5.57;1.40;;;;;;;;;;4941404;28;20054;-78
2022/03/04 09:58:28;;;;;;;2.33;1.20;;;;;;;;;;4936890;28;20118;-78
2022/03/04 10:00:53;;;;;;;5.80;1.40;;;;;;;;;;4952299;28;20038;-78
2022/03/04 10:03:39;;;;;;;2.40;1.30;;;;;;;;;;4963207;28;20035;-78
2022/03/04 10:06:06;;;;;;;4.20;1.73;;;;;;;;;;4942760;28;20500;-78
2022/03/04 10:08:39;;;;;;;5.25;1.83;;;;;;;;;;4943704;28;20091;-78
2022/03/04 10:11:05;;;;;;;6.72;2.00;;;;;;;;;;4955258;28;20444;-78
2022/03/04 10:13:52;;;;;;;4.18;1.73;;;;;;;;;;4961417;28;20124;-78
2022/03/04 10:16:24;;;;;;;4.32;1.80;;;;;;;;;;4962336;28;20050;-78
2022/03/04 10:19:13;;;;;;;9.70;1.77;;;;;;;;;;4964003;28;20058;-78
2022/03/04 10:21:54;;;;;;;5.05;1.83;;;;;;;;;;4965175;28;20043;-78
2022/03/04 10:24:24;;;;;;;4.57;2.10;;;;;;;;;;4950372;28;20752;-78
2022/03/04 10:27:01;;;;;;;5.50;2.38;;;;;;;;;;4963403;28;20042;-78
2022/03/04 10:29:28;;;;;;;4.07;2.42;;;;;;;;;;4963619;28;20439;-78
2022/03/04 10:32:06;;;;;;;2.50;1.58;;;;;;;;;;4947550;28;20111;-78
2022/03/04 10:34:52;;;;;;;4.25;1.65;;;;;;;;;;4959412;28;20058;-78
2022/03/04 10:37:24;;;;;;;7.68;1.85;;;;;;;;;;4949553;28;20050;-78
2022/03/04 10:40:07;;;;;;;3.47;1.73;;;;;;;;;;4964761;28;20039;-78
2022/03/04 10:42:47;;;;;;;5.10;1.90;;;;;;;;;;4965146;28;20046;-78
2022/03/04 10:45:20;;;;;;;3.13;1.50;;;;;;;;;;4966869;28;20054;-78
2022/03/04 10:47:51;;;;;;;3.47;1.48;;;;;;;;;;4960492;28;20444;-78
2022/03/04 10:50:34;;;;;;;4.15;1.67;;;;;;;;;;4948437;28;20043;-78
2022/03/04 10:53:05;;;;;;;3.38;1.63;;;;;;;;;;4977099;28;20134;-78
2022/03/04 10:55:33;;;;;;;3.85;1.13;;;;;;;;;;4962782;28;20496;-78
2022/03/04 10:58:01;;;;;;;3.58;1.20;;;;;;;;;;4965807;28;20039;-77
2022/03/04 11:00:34;;;;;;;4.60;1.45;;;;;;;;;;4981353;28;20551;-78
2022/03/04 11:03:00;;;;;;;3.20;1.05;;;;;;;;;;4976175;28;20122;-78
2022/03/04 11:05:26;;;;;;;3.95;1.67;;;;;;;;;;4960755;28;20432;-78
2022/03/04 11:07:52;;;;;;;2.92;1.40;;;;;;;;;;4960099;28;20272;-78
2022/03/04 11:10:19;;;;;;;6.63;1.73;;;;;;;;;;4956196;28;20046;-78
2022/03/04 11:12:46;;;;;;;4.78;1.75;;;;;;;;;;4948705;28;20042;-78
2022/03/04 11:15:13;;;;;;;3.15;1.35;;;;;;;;;;4964535;28;20043;-78
2022/03/04 11:17:39;;;;;;;3.85;1.20;;;;;;;;;;4942253;28;20040;-77
2022/03/04 11:20:09;;;;;;;3.55;1.30;;;;;;;;;;4947952;28;20114;-78
2022/03/04 11:22:39;;;;;;;3.05;1.58;;;;;;;;;;4948459;28;20065;-78
2022/03/04 11:25:13;;;;;;;3.15;1.27;;;;;;;;;;4955866;28;20047;-78
2022/03/04 11:27:52;;;;;;;2.63;1.23;;;;;;;;;;4964007;28;20504;-78
2022/03/04 11:30:28;;;;;;;5.75;1.45;;;;;;;;;;4948470;28;20049;-78
2022/03/04 11:33:17;;;;;;;3.78;1.45;;;;;;;;;;4961081;28;20050;-78
2022/03/04 11:35:52;;;;;;;3.42;1.48;;;;;;;;;;4959697;28;22363;-77
2022/03/04 11:38:47;;;;;;;2.75;1.58;;;;;;;;;;4939477;28;20042;-77
2022/03/04 11:41:37;;;;;;;4.38;1.80;;;;;;;;;;4961628;28;22307;-79
2022/03/04 11:44:15;;;;;;;1.92;1.00;;;;;;;;;;4959211;28;20064;-77
2022/03/04 11:46:58;;;;;;;5.68;1.88;;;;;;;;;;4958175;28;20035;-78
2022/03/04 11:49:27;;;;;;;5.88;2.05;;;;;;;;;;4954505;28;20053;-77
2022/03/04 11:52:08;;;;;;;7.93;5.40;;;;;;;;;;4956921;28;20146;-78
2022/03/04 11:54:38;;;;;;;5.07;2.20;;;;;;;;;;4963516;28;20054;-78
2022/03/04 11:57:27;;;;;;;4.80;2.17;;;;;;;;;;4939077;28;20043;-78
2022/03/04 12:00:00;;;;;;;4.50;1.95;;;;;;;;;;4935832;28;20043;-78
2022/03/04 12:02:27;;;;;;;3.63;1.83;;;;;;;;;;4937373;28;20120;-78
2022/03/04 12:05:25;;;;;;;2.17;1.80;;;;;;;;;;4943772;28;20059;-78
2022/03/04 12:08:08;;;;;;;4.88;1.80;;;;;;;;;;4954682;28;20046;-78
2022/03/04 12:10:41;;;;;;;3.10;2.33;;;;;;;;;;4958022;28;20049;-78
2022/03/04 12:13:14;;;;;;;3.15;2.15;;;;;;;;;;4935416;28;20049;-78
2022/03/04 12:15:45;;;;;;;2.95;2.22;;;;;;;;;;4941949;28;20103;-78
2022/03/04 12:18:18;;;;;;;4.22;2.67;;;;;;;;;;4946547;28;20090;-78
2022/03/04 12:20:44;;;;;;;7.88;3.53;;;;;;;;;;4950930;28;20039;-78
2022/03/04 12:23:12;;;;;;;3.25;2.95;;;;;;;;;;4971712;28;20515;-79
2022/03/04 12:25:56;;;;;;;5.90;2.88;;;;;;;;;;4964911;28;20045;-79
2022/03/04 12:28:32;;;;;;;5.57;3.50;;;;;;;;;;4959706;28;20336;-78
2022/03/04 12:31:01;;;;;;;8.00;5.13;;;;;;;;;;4947128;28;20045;-78
2022/03/04 12:33:27;;;;;;;6.13;4.45;;;;;;;;;;4943853;28;20046;-78
2022/03/04 12:36:00;;;;;;;4.35;3.95;;;;;;;;;;4946006;28;20070;-79
2022/03/04 12:38:26;;;;;;;5.15;4.18;;;;;;;;;;4964739;28;20989;-78
2022/03/04 12:40:56;;;;;;;5.55;3.65;;;;;;;;;;4953004;28;20143;-79
2022/03/04 12:43:21;;;;;;;4.28;3.45;;;;;;;;;;4940855;28;20508;-79
2022/03/04 12:45:49;;;;;;;4.13;3.05;;;;;;;;;;4958646;28;20439;-78
2022/03/04 12:48:15;;;;;;;6.85;3.53;;;;;;;;;;4963021;28;20039;-79
2022/03/04 12:50:41;;;;;;;8.88;4.78;;;;;;;;;;4953440;28;20371;-77
2022/03/04 12:53:23;;;;;;;6.95;4.35;;;;;;;;;;4966899;28;20130;-79
2022/03/04 12:55:51;;;;;;;6.53;4.07;;;;;;;;;;4950775;28;20530;-77
2022/03/04 12:58:17;;;;;;;4.78;3.50;;;;;;;;;;4948123;28;20168;-77
2022/03/04 13:00:43;;;;;;;4.90;3.15;;;;;;;;;;4961601;28;20443;-77
2022/03/04 13:03:19;;;;;;;4.85;2.90;;;;;;;;;;4957811;28;20134;-78
2022/03/04 13:05:46;;;;;;;3.65;2.90;;;;;;;;;;4938094;28;20046;-79
2022/03/04 13:08:15;;;;;;;5.53;3.40;;;;;;;;;;4961863;28;20443;-78
2022/03/04 13:10:41;;;;;;;4.57;3.35;;;;;;;;;;4953661;28;20064;-78
2022/03/04 13:13:07;;;;;;;5.47;3.25;;;;;;;;;;4940596;28;20710;-78
2022/03/04 13:15:33;;;;;;;6.15;3.88;;;;;;;;;;4944305;28;20098;-78
2022/03/04 13:18:00;;;;;;;8.40;4.38;;;;;;;;;;4959248;28;20051;-78
2022/03/04 13:20:26;;;;;;;7.13;4.45;;;;;;;;;;4929886;28;20205;-78
2022/03/04 13:23:08;;;;;;;6.13;3.88;;;;;;;;;;4941883;28;20043;-78
2022/03/04 13:25:34;;;;;;;8.55;3.75;;;;;;;;;;4944791;28;20066;-78
2022/03/04 13:28:00;;;;;;;6.28;3.70;;;;;;;;;;4943050;28;20449;-78
2022/03/04 13:30:26;;;;;;;6.43;2.78;;;;;;;;;;4942598;28;20035;-78
2022/03/04 13:32:55;;;;;;;2.40;2.13;;;;;;;;;;4977361;28;20050;-78
2022/03/04 13:35:24;;;;;;;2.40;2.08;;;;;;;;;;4953555;28;20051;-78
2022/03/04 13:37:50;;;;;;;3.97;1.90;;;;;;;;;;4966180;28;20046;-78
2022/03/04 13:40:18;;;;;;;2.55;1.55;;;;;;;;;;4946495;28;20050;-78
2022/03/04 13:42:50;;;;;;;4.85;2.22;;;;;;;;;;4937655;28;20070;-78
2022/03/04 13:45:34;;;;;;;2.47;1.42;;;;;;;;;;4961923;28;20066;-78
2022/03/04 13:48:02;;;;;;;3.78;1.45;;;;;;;;;;4959977;28;20464;-78
2022/03/04 13:50:32;;;;;;;3.10;1.35;;;;;;;;;;4946014;28;20070;-78
2022/03/04 13:53:04;;;;;;;3.88;1.70;;;;;;;;;;4960792;28;20057;-78
2022/03/04 13:55:51;;;;;;;3.33;1.40;;;;;;;;;;4961310;28;20043;-78
2022/03/04 13:58:21;;;;;;;2.83;1.30;;;;;;;;;;4961354;28;20094;-78
2022/03/04 14:00:51;;;;;;;3.17;1.20;;;;;;;;;;4954007;28;20051;-77
2022/03/04 14:03:23;;;;;;;3.13;1.70;;;;;;;;;;4985319;28;20051;-78
2022/03/04 14:05:57;;;;;;;2.10;1.30;;;;;;;;;;4926029;28;20096;-78
2022/03/04 14:08:24;;;;;;;2.42;1.50;;;;;;;;;;4961669;28;20047;-78
2022/03/04 14:10:49;;;;;;;4.00;1.50;;;;;;;;;;4962042;28;20567;-78
2022/03/04 14:13:18;;;;;;;4.95;1.95;;;;;;;;;;4960519;28;20066;-78
2022/03/04 14:15:45;;;;;;;4.03;1.75;;;;;;;;;;4961199;28;20045;-78
2022/03/04 14:18:12;;;;;;;4.07;1.55;;;;;;;;;;4939403;28;20039;-77
2022/03/04 14:20:40;;;;;;;2.78;1.30;;;;;;;;;;4955400;28;20263;-77
2022/03/04 14:23:08;;;;;;;2.75;1.40;;;;;;;;;;4929046;28;20051;-78
2022/03/04 14:25:34;;;;;;;4.30;1.40;;;;;;;;;;4931005;28;20465;-77
2022/03/04 14:28:00;;;;;;;3.65;1.50;;;;;;;;;;4951325;28;20118;-77
2022/03/04 14:30:29;;;;;;;2.83;1.73;;;;;;;;;;4952997;28;20054;-76
2022/03/04 14:32:56;;;;;;;1.27;1.13;;;;;;;;;;4976432;28;20066;-76